Time;durP1;ratioP1;P1;durP2;ratioP2;P2;SDS_P1;SDS_P2;PMS_P1;PMS_P2;Temp;Humidity;BMP_temperature;BMP_pressure;BME280_temperature;BME280_humidity;BME280_pressure;Samples;Min_cycle;Max_cycle;Signal;HPM_P1;HPM_P2
2022/08/29 00:00:13;;;;;;;6.70;4.90;;;;;;;19.10;66.55;99723.13;347189;28;1453;-73
2022/08/29 00:00:29;;;;;;;6.53;4.63;;;;;;;19.10;66.75;99718.69;347563;28;1439;-73
2022/08/29 00:00:41;;;;;;;7.40;4.72;;;;;;;19.10;66.69;99708.16;347146;28;1909;-73
2022/08/29 00:00:54;;;;;;;8.18;5.05;;;;;;;19.10;66.78;99708.16;347775;28;900;-73
2022/08/29 00:01:08;;;;;;;8.30;4.97;;;;;;;19.09;66.48;99710.88;347466;28;1246;-73
2022/08/29 00:01:20;;;;;;;8.27;4.70;;;;;;;19.09;66.66;99709.09;347419;28;1216;-73
2022/08/29 00:01:34;;;;;;;8.20;4.82;;;;;;;19.10;66.82;99712.59;347185;28;1743;-73
2022/08/29 00:01:46;;;;;;;7.55;4.80;;;;;;;19.10;66.64;99716.06;347421;28;1586;-72
2022/08/29 00:01:58;;;;;;;8.43;4.87;;;;;;;19.10;66.53;99713.44;347435;28;1551;-72
2022/08/29 00:02:10;;;;;;;7.07;4.70;;;;;;;19.09;66.62;99711.72;347673;28;1519;-72
2022/08/29 00:02:23;;;;;;;5.88;4.68;;;;;;;19.09;66.69;99711.72;347774;28;1162;-72
2022/08/29 00:02:35;;;;;;;6.20;4.55;;;;;;;19.09;66.87;99717.00;345253;28;3219;-73
2022/08/29 00:02:54;;;;;;;7.53;4.72;;;;;;;19.09;66.73;99713.53;346818;28;3145;-73
2022/08/29 00:03:06;;;;;;;8.07;4.88;;;;;;;19.08;66.75;99717.13;347540;28;2422;-73
2022/08/29 00:03:20;;;;;;;8.43;4.70;;;;;;;19.07;66.71;99713.63;346446;28;1682;-73
2022/08/29 00:03:32;;;;;;;8.13;4.63;;;;;;;19.06;66.69;99711.94;348930;28;1200;-73
2022/08/29 00:03:44;;;;;;;7.38;4.70;;;;;;;19.05;66.25;99712.03;349511;28;1147;-72
2022/08/29 00:03:57;;;;;;;7.70;4.90;;;;;;;19.01;66.53;99714.03;347255;28;1708;-73
2022/08/29 00:04:09;;;;;;;7.10;4.93;;;;;;;18.99;66.70;99710.66;349237;28;1168;-72
2022/08/29 00:04:22;;;;;;;6.35;4.70;;;;;;;18.98;66.84;99711.63;346993;28;1735;-73
2022/08/29 00:04:34;;;;;;;6.05;4.72;;;;;;;18.98;66.90;99714.25;346210;28;2933;-73
2022/08/29 00:04:46;;;;;;;6.43;4.82;;;;;;;18.98;67.08;99708.97;346393;28;1227;-73
2022/08/29 00:04:58;;;;;;;5.80;4.70;;;;;;;18.95;66.86;99714.44;346507;28;1006;-73
2022/08/29 00:05:11;;;;;;;6.50;4.70;;;;;;;18.95;66.78;99709.16;346990;28;1673;-73
2022/08/29 00:05:28;;;;;;;7.07;4.63;;;;;;;18.95;67.00;99710.03;347505;28;1897;-73
2022/08/29 00:05:40;;;;;;;8.02;4.72;;;;;;;18.96;66.93;99716.97;347506;28;1735;-73
2022/08/29 00:05:53;;;;;;;7.93;4.78;;;;;;;18.96;67.02;99705.59;347950;28;1222;-73
2022/08/29 00:06:05;;;;;;;7.75;4.93;;;;;;;18.96;66.86;99708.25;346664;28;1121;-73
2022/08/29 00:06:17;;;;;;;7.35;5.13;;;;;;;18.95;66.98;99709.16;346461;28;1327;-73
2022/08/29 00:06:29;;;;;;;7.00;4.93;;;;;;;18.95;66.84;99714.44;347737;28;1051;-73
2022/08/29 00:06:41;;;;;;;6.55;4.60;;;;;;;18.95;66.63;99706.53;347600;28;1039;-73
2022/08/29 00:06:53;;;;;;;6.70;4.70;;;;;;;18.96;67.05;99710.88;347374;28;1082;-72
2022/08/29 00:07:05;;;;;;;6.40;4.65;;;;;;;18.95;66.78;99703.91;346797;28;1963;-72
2022/08/29 00:07:17;;;;;;;5.68;4.75;;;;;;;18.94;66.91;99705.69;346395;28;1610;-72
2022/08/29 00:07:29;;;;;;;5.93;4.65;;;;;;;18.95;66.95;99709.16;347826;28;1119;-73
2022/08/29 00:07:41;;;;;;;5.40;4.50;;;;;;;18.93;67.14;99711.06;347763;28;1329;-73
2022/08/29 00:07:53;;;;;;;6.15;4.68;;;;;;;18.94;66.90;99707.50;347860;28;1231;-73
2022/08/29 00:08:05;;;;;;;7.13;4.80;;;;;;;18.93;66.78;99705.78;347724;28;1051;-72
2022/08/29 00:08:18;;;;;;;7.15;4.93;;;;;;;18.95;66.58;99703.91;347656;28;1210;-72
2022/08/29 00:08:30;;;;;;;5.82;4.63;;;;;;;18.96;66.79;99705.59;347910;28;1101;-72
2022/08/29 00:08:43;;;;;;;4.90;4.40;;;;;;;18.98;66.82;99702.88;347960;28;1178;-73
2022/08/29 00:08:55;;;;;;;5.10;4.60;;;;;;;18.99;66.67;99710.66;346971;28;1753;-73
2022/08/29 00:09:07;;;;;;;5.40;4.63;;;;;;;18.98;66.62;99702.88;349518;28;1087;-73
2022/08/29 00:09:19;;;;;;;6.60;4.75;;;;;;;18.96;66.86;99705.59;348619;28;1267;-73
2022/08/29 00:09:31;;;;;;;7.30;4.93;;;;;;;18.97;66.64;99709.91;347983;28;1112;-72
2022/08/29 00:09:43;;;;;;;7.07;5.00;;;;;;;18.98;66.92;99702.88;347912;28;1045;-72
2022/08/29 00:09:55;;;;;;;6.10;4.80;;;;;;;18.99;66.85;99705.38;347962;28;1083;-73
2022/08/29 00:10:08;;;;;;;6.93;4.70;;;;;;;18.98;66.96;99703.72;347895;28;1249;-73
2022/08/29 00:10:21;;;;;;;7.15;4.82;;;;;;;18.99;66.66;99708.03;347912;28;1339;-73
2022/08/29 00:10:35;;;;;;;7.05;4.90;;;;;;;19.00;66.71;99706.25;347341;28;1111;-73
2022/08/29 00:10:47;;;;;;;7.30;4.93;;;;;;;19.00;66.50;99701.81;347172;28;1596;-73
2022/08/29 00:11:00;;;;;;;7.88;4.85;;;;;;;19.01;66.95;99707.91;347994;28;1288;-73
2022/08/29 00:11:12;;;;;;;7.70;5.00;;;;;;;19.00;66.75;99701.81;347987;28;1251;-72
2022/08/29 00:11:24;;;;;;;6.80;5.00;;;;;;;19.00;66.75;99706.25;347725;28;1521;-73
2022/08/29 00:11:36;;;;;;;6.20;4.80;;;;;;;18.98;66.71;99702.88;347911;28;1133;-73
2022/08/29 00:11:54;;;;;;;5.32;4.57;;;;;;;19.00;66.53;99703.63;347789;28;1307;-73
2022/08/29 00:12:06;;;;;;;5.40;4.60;;;;;;;18.98;66.90;99708.97;347211;28;1543;-73
2022/08/29 00:12:18;;;;;;;6.90;4.70;;;;;;;18.99;66.99;99705.38;348460;28;1202;-73
2022/08/29 00:12:31;;;;;;;7.65;4.80;;;;;;;18.96;67.24;99710.88;346269;28;1185;-73
2022/08/29 00:12:43;;;;;;;7.22;4.80;;;;;;;18.95;67.28;99703.91;346101;28;1521;-73
2022/08/29 00:12:55;;;;;;;6.53;4.82;;;;;;;18.94;67.14;99707.50;346501;28;1097;-73
2022/08/29 00:13:10;;;;;;;6.60;4.88;;;;;;;18.92;67.15;99704.13;346521;28;1093;-73
2022/08/29 00:13:23;;;;;;;7.40;4.95;;;;;;;18.93;66.97;99700.53;344989;28;1148;-74
2022/08/29 00:13:35;;;;;;;7.15;5.10;;;;;;;18.92;66.97;99709.38;345174;28;1185;-73
2022/08/29 00:13:48;;;;;;;6.75;4.90;;;;;;;18.93;66.92;99703.16;344850;28;1062;-73
2022/08/29 00:14:00;;;;;;;8.00;4.90;;;;;;;18.93;66.84;99705.78;344845;28;1227;-73
2022/08/29 00:14:13;;;;;;;8.90;4.90;;;;;;;18.92;66.74;99704.13;344537;28;1980;-73
2022/08/29 00:14:35;;;;;;;8.25;4.70;;;;;;;18.91;66.75;99703.28;345714;28;1065;-73
2022/08/29 00:14:47;;;;;;;6.72;4.60;;;;;;;18.92;67.08;99702.31;345728;28;1120;-72
2022/08/29 00:14:59;;;;;;;6.95;4.78;;;;;;;18.89;67.16;99709.56;346260;28;1091;-73
2022/08/29 00:15:13;;;;;;;6.93;4.88;;;;;;;18.89;67.27;99705.16;346216;28;1046;-73
2022/08/29 00:15:26;;;;;;;6.40;4.90;;;;;;;18.88;67.05;99702.63;345406;28;1339;-72
2022/08/29 00:15:39;;;;;;;7.10;5.00;;;;;;;18.88;66.81;99697.38;346362;28;1042;-73
2022/08/29 00:15:56;;;;;;;10.25;4.85;;;;;;;18.88;67.15;99708.75;347555;28;1083;-73
2022/08/29 00:16:08;;;;;;;11.97;4.80;;;;;;;18.86;67.21;99709.78;346491;28;1512;-73
2022/08/29 00:16:20;;;;;;;9.82;4.72;;;;;;;18.85;67.29;99705.47;348002;28;1741;-73
2022/08/29 00:16:33;;;;;;;7.70;4.80;;;;;;;18.85;66.92;99708.09;349006;28;1159;-72
2022/08/29 00:16:45;;;;;;;6.38;4.75;;;;;;;18.85;66.72;99702.81;349072;28;1153;-73
2022/08/29 00:16:59;;;;;;;6.18;4.72;;;;;;;18.85;66.56;99701.03;349323;28;1038;-73
2022/08/29 00:17:12;;;;;;;7.07;4.78;;;;;;;18.83;66.22;99705.56;347792;28;1117;-73
2022/08/29 00:17:24;;;;;;;8.00;5.07;;;;;;;18.85;66.20;99702.81;346780;28;1253;-73
2022/08/29 00:17:36;;;;;;;7.47;4.90;;;;;;;18.86;66.11;99704.53;347992;28;1124;-73
2022/08/29 00:17:48;;;;;;;6.25;4.63;;;;;;;18.86;66.02;99704.53;346963;28;1659;-73
2022/08/29 00:18:02;;;;;;;6.53;4.38;;;;;;;18.87;66.13;99698.28;346323;28;1043;-73
2022/08/29 00:18:18;;;;;;;7.53;4.57;;;;;;;18.87;66.06;99703.56;346434;28;1404;-73
2022/08/29 00:18:30;;;;;;;7.03;4.72;;;;;;;18.87;66.01;99707.03;346308;28;1059;-73
2022/08/29 00:18:44;;;;;;;6.95;4.70;;;;;;;18.85;65.85;99706.28;346727;28;753;-73
2022/08/29 00:18:56;;;;;;;8.10;4.80;;;;;;;18.86;65.88;99709.78;345788;28;1553;-73
2022/08/29 00:19:08;;;;;;;7.07;4.60;;;;;;;18.88;65.89;99702.63;346256;28;1219;-72
2022/08/29 00:19:20;;;;;;;7.32;4.47;;;;;;;18.88;65.83;99705.28;348244;28;1166;-73
2022/08/29 00:19:32;;;;;;;7.10;4.60;;;;;;;18.87;66.13;99704.41;347617;28;1399;-73
2022/08/29 00:19:44;;;;;;;6.57;4.60;;;;;;;18.89;66.18;99704.31;347086;28;1426;-72
2022/08/29 00:19:57;;;;;;;6.18;4.60;;;;;;;18.88;66.43;99700.00;347509;28;1537;-73
2022/08/29 00:20:13;;;;;;;6.10;4.78;;;;;;;18.88;66.44;99707.91;347619;28;1252;-73
2022/08/29 00:20:28;;;;;;;5.63;4.68;;;;;;;18.85;66.22;99702.81;346960;28;1755;-73
2022/08/29 00:20:46;;;;;;;5.95;4.50;;;;;;;18.86;66.25;99704.53;346685;28;3041;-73
2022/08/29 00:20:58;;;;;;;6.10;4.38;;;;;;;18.86;66.43;99705.38;345702;28;1314;-73
2022/08/29 00:21:10;;;;;;;6.15;4.40;;;;;;;18.86;66.21;99710.63;347557;28;1099;-73
2022/08/29 00:21:23;;;;;;;5.65;4.40;;;;;;;18.86;66.16;99708.00;347525;28;3021;-73
2022/08/29 00:21:35;;;;;;;6.18;4.35;;;;;;;18.87;66.30;99703.56;347732;28;1099;-73
2022/08/29 00:21:47;;;;;;;5.82;4.30;;;;;;;18.88;66.16;99707.91;348071;28;1077;-73
2022/08/29 00:21:59;;;;;;;4.95;4.25;;;;;;;18.86;65.98;99704.53;347715;28;1074;-73
2022/08/29 00:22:11;;;;;;;5.28;4.20;;;;;;;18.86;66.07;99705.38;347348;28;1639;-73
2022/08/29 00:22:23;;;;;;;5.78;4.20;;;;;;;18.85;66.11;99703.66;348517;28;1249;-73
2022/08/29 00:22:35;;;;;;;6.65;4.32;;;;;;;18.87;65.96;99711.47;349079;28;1053;-73
2022/08/29 00:22:48;;;;;;;6.25;4.25;;;;;;;18.87;65.99;99706.19;346505;28;1066;-73
2022/08/29 00:23:01;;;;;;;7.03;4.30;;;;;;;18.87;65.88;99709.66;346402;28;1189;-73
2022/08/29 00:23:13;;;;;;;7.38;4.43;;;;;;;18.87;65.69;99708.84;346389;28;1052;-73
2022/08/29 00:23:26;;;;;;;6.50;4.30;;;;;;;18.87;65.57;99707.03;346402;28;1493;-73
2022/08/29 00:23:39;;;;;;;5.97;4.20;;;;;;;18.88;65.51;99707.91;346422;28;1253;-73
2022/08/29 00:23:51;;;;;;;6.20;4.28;;;;;;;18.86;65.58;99709.78;346351;28;1198;-73
2022/08/29 00:24:03;;;;;;;7.00;4.00;;;;;;;18.87;65.92;99706.19;346373;28;1603;-73
2022/08/29 00:24:15;;;;;;;7.22;3.92;;;;;;;18.87;66.16;99711.47;349094;28;1219;-73
2022/08/29 00:24:28;;;;;;;6.53;4.00;;;;;;;18.87;66.16;99706.19;347821;28;1081;-73
2022/08/29 00:24:40;;;;;;;5.70;4.07;;;;;;;18.87;65.89;99706.19;347496;28;1226;-73
2022/08/29 00:24:51;;;;;;;5.88;3.88;;;;;;;18.88;66.04;99707.91;347659;28;1084;-73
2022/08/29 00:25:05;;;;;;;7.05;4.03;;;;;;;18.86;66.56;99708.00;347643;28;1027;-73
2022/08/29 00:25:17;;;;;;;7.57;4.20;;;;;;;18.85;66.89;99713.34;347468;28;1131;-73
2022/08/29 00:25:30;;;;;;;6.95;4.10;;;;;;;18.83;66.91;99709.97;347717;28;1304;-73
2022/08/29 00:25:42;;;;;;;6.75;4.07;;;;;;;18.82;66.98;99708.31;348701;28;1279;-73
2022/08/29 00:25:55;;;;;;;6.32;4.45;;;;;;;18.81;66.94;99714.50;349139;28;1054;-73
2022/08/29 00:26:07;;;;;;;6.10;4.60;;;;;;;18.80;66.86;99710.19;349257;28;1191;-73
2022/08/29 00:26:19;;;;;;;6.15;4.80;;;;;;;18.81;66.92;99711.88;348502;28;1269;-73
2022/08/29 00:26:31;;;;;;;7.03;4.57;;;;;;;18.79;66.90;99719.00;347706;28;1044;-73
2022/08/29 00:26:43;;;;;;;6.65;4.40;;;;;;;18.80;67.01;99704.94;347398;28;2752;-73
2022/08/29 00:26:55;;;;;;;5.43;4.35;;;;;;;18.80;66.95;99704.94;346661;28;1058;-73
2022/08/29 00:27:07;;;;;;;5.72;4.35;;;;;;;18.80;66.99;99711.03;346684;28;1261;-73
2022/08/29 00:27:19;;;;;;;6.18;4.47;;;;;;;18.81;67.34;99706.59;348471;28;1277;-73
2022/08/29 00:27:32;;;;;;;6.78;4.63;;;;;;;18.80;66.97;99713.66;348099;28;1763;-73
2022/08/29 00:27:44;;;;;;;6.43;4.50;;;;;;;18.81;66.94;99717.13;347754;28;1656;-72
2022/08/29 00:28:01;;;;;;;5.03;4.43;;;;;;;18.74;66.64;99712.25;347966;28;1007;-73
2022/08/29 00:28:13;;;;;;;6.45;4.72;;;;;;;18.76;66.59;99710.34;347900;28;1711;-73
2022/08/29 00:28:25;;;;;;;7.82;4.85;;;;;;;18.76;66.35;99718.25;347453;28;1433;-73
2022/08/29 00:28:37;;;;;;;7.35;4.82;;;;;;;18.75;66.98;99708.69;347787;28;1106;-73
2022/08/29 00:28:50;;;;;;;5.60;4.72;;;;;;;18.77;66.94;99709.44;346859;28;1641;-73
2022/08/29 00:29:02;;;;;;;6.28;4.72;;;;;;;18.77;67.15;99713.81;347951;28;1069;-73
2022/08/29 00:29:14;;;;;;;6.60;4.63;;;;;;;18.79;67.02;99713.72;347773;28;1104;-73
2022/08/29 00:29:27;;;;;;;6.10;4.85;;;;;;;18.77;66.88;99712.06;346116;28;1264;-73
2022/08/29 00:29:39;;;;;;;6.03;5.00;;;;;;;18.79;66.97;99716.38;345925;28;1705;-73
2022/08/29 00:29:51;;;;;;;6.05;4.95;;;;;;;18.79;66.56;99721.63;347630;28;1704;-73
2022/08/29 00:30:06;;;;;;;7.40;4.90;;;;;;;18.77;66.74;99719.97;349006;28;1190;-73
2022/08/29 00:30:19;;;;;;;7.72;4.95;;;;;;;18.74;66.86;99717.50;348916;28;1212;-73
2022/08/29 00:30:33;;;;;;;5.80;4.90;;;;;;;18.73;66.58;99717.59;349157;28;1303;-73
2022/08/29 00:30:45;;;;;;;6.15;4.82;;;;;;;18.72;66.74;99713.31;349061;28;1034;-73
2022/08/29 00:30:57;;;;;;;6.50;4.75;;;;;;;18.71;67.09;99712.47;348820;28;1145;-73
2022/08/29 00:31:09;;;;;;;7.35;4.78;;;;;;;18.71;67.04;99717.72;348187;28;1013;-73
2022/08/29 00:31:21;;;;;;;8.27;5.15;;;;;;;18.70;67.08;99708.13;347460;28;1640;-73
2022/08/29 00:31:33;;;;;;;7.88;5.15;;;;;;;18.70;67.20;99716.03;346141;28;1049;-73
2022/08/29 00:31:45;;;;;;;8.35;5.18;;;;;;;18.69;67.26;99719.63;346592;28;1346;-73
2022/08/29 00:31:57;;;;;;;6.15;4.97;;;;;;;18.69;67.14;99724.88;346375;28;1534;-73
2022/08/29 00:32:09;;;;;;;6.32;4.93;;;;;;;18.69;67.33;99714.34;346574;28;1589;-73
2022/08/29 00:32:21;;;;;;;6.95;4.80;;;;;;;18.68;67.32;99717.91;346611;28;1245;-72
2022/08/29 00:32:35;;;;;;;6.72;4.80;;;;;;;18.67;67.18;99716.25;346189;28;1133;-73
2022/08/29 00:32:47;;;;;;;7.03;4.78;;;;;;;18.69;67.32;99714.34;346508;28;1280;-73
2022/08/29 00:32:59;;;;;;;7.43;4.80;;;;;;;18.70;67.08;99715.19;346497;28;1234;-73
2022/08/29 00:33:11;;;;;;;6.38;4.80;;;;;;;18.69;67.48;99713.47;346570;28;1218;-73
2022/08/29 00:33:24;;;;;;;6.28;4.78;;;;;;;18.67;67.15;99716.25;346999;28;1635;-73
2022/08/29 00:33:36;;;;;;;6.22;4.65;;;;;;;18.68;67.19;99711.81;347578;28;949;-73
2022/08/29 00:33:50;;;;;;;6.90;4.85;;;;;;;18.65;67.28;99718.13;345207;28;2965;-73
2022/08/29 00:34:02;;;;;;;6.27;4.77;;;;;;;18.67;67.41;99715.38;348121;28;1159;-73
2022/08/29 00:34:14;;;;;;;6.43;4.82;;;;;;;18.65;67.46;99706.72;349171;28;1014;-73
2022/08/29 00:34:26;;;;;;;7.97;4.82;;;;;;;18.65;67.20;99718.13;346622;28;1053;-73
2022/08/29 00:34:38;;;;;;;8.32;4.90;;;;;;;18.63;67.45;99714.72;346359;28;1006;-72
2022/08/29 00:34:51;;;;;;;9.98;5.05;;;;;;;18.63;67.27;99722.63;346437;28;1621;-73
2022/08/29 00:35:05;;;;;;;9.77;5.15;;;;;;;18.61;67.35;99716.63;349324;28;1725;-73
2022/08/29 00:35:22;;;;;;;8.05;4.78;;;;;;;18.60;67.38;99714.94;348683;28;1213;-73
2022/08/29 00:35:37;;;;;;;6.85;4.57;;;;;;;18.59;67.41;99715.88;347701;28;1198;-73
2022/08/29 00:35:52;;;;;;;8.00;4.93;;;;;;;18.60;67.49;99714.94;346922;28;1906;-73
2022/08/29 00:36:04;;;;;;;8.45;4.95;;;;;;;18.59;67.51;99710.59;348001;28;1295;-73
2022/08/29 00:36:16;;;;;;;7.32;4.70;;;;;;;18.61;67.51;99713.13;347824;28;1641;-73
2022/08/29 00:36:28;;;;;;;6.82;4.72;;;;;;;18.61;67.61;99716.63;347970;28;1263;-73
2022/08/29 00:36:42;;;;;;;6.05;4.50;;;;;;;18.62;67.54;99713.06;347872;28;1231;-73
2022/08/29 00:37:00;;;;;;;5.32;4.40;;;;;;;18.66;67.53;99717.16;347157;28;2050;-73
2022/08/29 00:37:12;;;;;;;5.97;4.80;;;;;;;18.66;67.69;99718.97;347643;28;1587;-74
2022/08/29 00:37:24;;;;;;;6.53;5.03;;;;;;;18.66;67.68;99719.81;347623;28;1197;-73
2022/08/29 00:37:36;;;;;;;5.75;4.72;;;;;;;18.67;67.48;99710.97;347511;28;1727;-73
2022/08/29 00:37:50;;;;;;;4.93;4.43;;;;;;;18.67;67.59;99715.38;347441;28;1277;-73
2022/08/29 00:38:05;;;;;;;5.50;4.50;;;;;;;18.66;67.44;99714.53;347792;28;1118;-73
2022/08/29 00:38:19;;;;;;;7.35;4.63;;;;;;;18.62;67.64;99713.06;348003;28;1193;-73
2022/08/29 00:38:31;;;;;;;7.07;4.60;;;;;;;18.63;67.36;99713.88;348145;28;1256;-73
2022/08/29 00:38:43;;;;;;;5.28;4.35;;;;;;;18.62;67.19;99710.41;349473;28;1325;-73
2022/08/29 00:38:55;;;;;;;5.63;4.55;;;;;;;18.60;67.32;99714.09;348105;28;2725;-73
2022/08/29 00:39:09;;;;;;;6.15;4.80;;;;;;;18.60;67.48;99707.03;348103;28;1092;-73
2022/08/29 00:39:21;;;;;;;6.95;4.88;;;;;;;18.59;67.12;99713.22;348033;28;1336;-73
2022/08/29 00:39:34;;;;;;;8.00;4.70;;;;;;;18.61;67.14;99716.63;347969;28;1006;-73
2022/08/29 00:39:47;;;;;;;7.85;4.65;;;;;;;18.60;67.14;99708.84;348020;28;1013;-73
2022/08/29 00:40:00;;;;;;;7.03;4.68;;;;;;;18.61;67.31;99711.34;348022;28;1189;-73
2022/08/29 00:40:20;;;;;;;5.82;4.50;;;;;;;18.61;67.09;99706.09;348764;28;1247;-73
2022/08/29 00:40:36;;;;;;;6.00;4.30;;;;;;;18.62;67.14;99710.41;348231;28;2144;-73
2022/08/29 00:40:53;;;;;;;6.28;4.30;;;;;;;18.60;67.41;99709.69;348090;28;1176;-73
2022/08/29 00:41:05;;;;;;;8.60;4.60;;;;;;;18.54;67.29;99715.34;347775;28;1193;-73
2022/08/29 00:41:18;;;;;;;9.45;4.78;;;;;;;18.51;67.40;99713.75;347958;28;1426;-73
2022/08/29 00:41:30;;;;;;;7.95;4.80;;;;;;;18.50;67.58;99708.59;348004;28;1077;-73
2022/08/29 00:41:42;;;;;;;7.13;4.68;;;;;;;18.51;67.56;99712.88;348002;28;1295;-73
2022/08/29 00:41:54;;;;;;;6.03;4.30;;;;;;;18.50;67.50;99713.84;346615;28;1267;-73
2022/08/29 00:42:06;;;;;;;5.53;4.03;;;;;;;18.51;67.58;99715.53;346343;28;1611;-73
2022/08/29 00:42:18;;;;;;;6.13;4.10;;;;;;;18.51;67.37;99718.16;348238;28;1541;-73
2022/08/29 00:42:31;;;;;;;5.55;4.13;;;;;;;18.47;67.36;99714.91;347376;28;1749;-73
2022/08/29 00:42:43;;;;;;;5.35;4.20;;;;;;;18.47;67.60;99709.63;346913;28;1078;-73
2022/08/29 00:42:56;;;;;;;4.50;3.90;;;;;;;18.48;67.60;99710.47;346723;28;1208;-73
2022/08/29 00:43:09;;;;;;;4.85;3.95;;;;;;;18.47;67.46;99716.66;345932;28;1620;-73
2022/08/29 00:43:25;;;;;;;6.13;4.20;;;;;;;18.45;67.45;99705.38;347029;28;1274;-73
2022/08/29 00:43:37;;;;;;;6.65;4.18;;;;;;;18.49;67.34;99712.16;349350;28;1092;-73
2022/08/29 00:43:49;;;;;;;6.78;4.00;;;;;;;18.50;67.33;99703.31;349365;28;1191;-73
2022/08/29 00:44:02;;;;;;;7.07;3.95;;;;;;;18.49;67.23;99706.88;347560;28;2053;-73
2022/08/29 00:44:15;;;;;;;6.20;3.90;;;;;;;18.46;66.80;99713.19;347389;28;1656;-73
2022/08/29 00:44:28;;;;;;;7.90;4.03;;;;;;;18.41;66.36;99709.16;346528;28;1162;-73
2022/08/29 00:44:43;;;;;;;6.82;4.10;;;;;;;18.36;67.21;99709.47;346651;28;955;-73
2022/08/29 00:44:55;;;;;;;4.32;3.90;;;;;;;18.38;67.33;99714.63;346632;28;1244;-73
2022/08/29 00:45:09;;;;;;;4.30;3.88;;;;;;;18.37;67.14;99713.78;348788;28;1560;-73
2022/08/29 00:45:22;;;;;;;5.00;3.90;;;;;;;18.39;66.96;99713.69;348196;28;1744;-73
2022/08/29 00:45:37;;;;;;;6.18;3.97;;;;;;;18.36;66.79;99717.38;347845;28;1022;-73
2022/08/29 00:46:03;;;;;;;6.85;4.32;;;;;;;18.35;66.46;99711.25;347598;28;1257;-73
2022/08/29 00:46:15;;;;;;;7.20;4.18;;;;;;;18.34;66.65;99714.81;347713;28;1180;-73
2022/08/29 00:46:42;;;;;;;5.78;4.10;;;;;;;18.34;67.20;99714.81;347715;28;1296;-73
2022/08/29 00:46:57;;;;;;;6.75;4.20;;;;;;;18.36;67.01;99712.94;347092;28;1190;-73
2022/08/29 00:47:11;;;;;;;6.13;3.97;;;;;;;18.36;67.08;99712.09;347141;28;1600;-73
2022/08/29 00:47:31;;;;;;;5.72;4.00;;;;;;;18.37;67.03;99713.78;347702;28;1834;-73
2022/08/29 00:47:59;;;;;;;6.22;4.22;;;;;;;18.37;66.94;99716.41;348890;28;1059;-73
2022/08/29 00:48:14;;;;;;;5.63;3.92;;;;;;;18.39;66.40;99713.69;349258;28;1106;-73
2022/08/29 00:48:27;;;;;;;6.60;4.10;;;;;;;18.36;66.44;99718.19;346417;28;1248;-73
2022/08/29 00:48:40;;;;;;;6.72;4.15;;;;;;;18.40;66.68;99718.00;346544;28;1184;-73
2022/08/29 00:48:57;;;;;;;7.15;4.40;;;;;;;18.39;66.49;99716.31;346781;28;1631;-73
2022/08/29 00:49:34;;;;;;;6.93;4.20;;;;;;;18.41;66.06;99711.78;346524;28;1039;-73
2022/08/29 00:49:50;;;;;;;7.05;3.85;;;;;;;18.41;66.34;99714.44;346311;28;1155;-73
2022/08/29 00:50:06;;;;;;;8.80;4.50;;;;;;;18.42;66.44;99721.41;345372;28;848;-73
2022/08/29 00:50:33;;;;;;;7.22;4.30;;;;;;;18.43;65.86;99723.06;345308;28;1436;-73
2022/08/29 00:50:52;;;;;;;5.20;3.90;;;;;;;18.40;65.88;99718.84;347740;28;1073;-73
2022/08/29 00:51:11;;;;;;;6.70;3.95;;;;;;;18.38;66.05;99714.63;347032;28;1270;-73
2022/08/29 00:51:24;;;;;;;5.95;3.90;;;;;;;18.38;65.97;99717.28;348148;28;1317;-73
2022/08/29 00:51:37;;;;;;;6.93;4.10;;;;;;;18.36;66.02;99715.56;348952;28;1256;-73
2022/08/29 00:51:50;;;;;;;6.05;4.00;;;;;;;18.36;66.11;99717.38;348826;28;1296;-73
2022/08/29 00:52:09;;;;;;;5.55;3.90;;;;;;;18.34;66.30;99722.72;348982;28;1306;-73
2022/08/29 00:52:31;;;;;;;6.75;4.00;;;;;;;18.32;66.49;99721.97;348422;28;1196;-73
2022/08/29 00:52:46;;;;;;;8.32;4.07;;;;;;;18.32;66.53;99716.72;347941;28;1622;-73
2022/08/29 00:53:04;;;;;;;7.53;3.85;;;;;;;18.29;66.63;99722.19;348005;28;1089;-73
2022/08/29 00:53:23;;;;;;;5.47;3.90;;;;;;;18.30;66.67;99715.97;346648;28;1372;-73
2022/08/29 00:53:39;;;;;;;6.05;4.22;;;;;;;18.30;66.43;99728.28;347780;28;1254;-73
2022/08/29 00:53:58;;;;;;;5.57;4.20;;;;;;;18.29;66.51;99711.66;347942;28;1629;-73
2022/08/29 00:54:10;;;;;;;5.85;4.18;;;;;;;18.29;66.60;99716.91;347919;28;1073;-73
2022/08/29 00:54:24;;;;;;;6.28;4.15;;;;;;;18.30;66.65;99715.13;347968;28;1208;-73
2022/08/29 00:54:37;;;;;;;6.07;4.10;;;;;;;18.33;66.47;99718.41;347894;28;1101;-73
2022/08/29 00:54:52;;;;;;;6.03;4.07;;;;;;;18.31;66.93;99715.03;348460;28;1204;-73
2022/08/29 00:55:11;;;;;;;6.90;4.10;;;;;;;18.31;67.24;99716.78;347932;28;1097;-73
2022/08/29 00:55:26;;;;;;;6.78;4.25;;;;;;;18.32;67.22;99715.88;347738;28;1069;-73
2022/08/29 00:55:39;;;;;;;6.13;4.28;;;;;;;18.34;67.12;99721.88;347518;28;1198;-73
2022/08/29 00:55:51;;;;;;;6.85;4.20;;;;;;;18.35;67.03;99715.66;348088;28;791;-73
2022/08/29 00:56:07;;;;;;;6.65;4.15;;;;;;;18.34;66.93;99714.81;347891;28;1071;-73
2022/08/29 00:56:20;;;;;;;6.40;4.10;;;;;;;18.36;66.91;99714.72;347599;28;988;-73
2022/08/29 00:56:34;;;;;;;5.97;4.03;;;;;;;18.35;66.74;99716.53;347128;28;1085;-73
2022/08/29 00:56:47;;;;;;;5.20;3.92;;;;;;;18.36;66.39;99718.19;347730;28;1065;-73
2022/08/29 00:56:59;;;;;;;5.78;4.00;;;;;;;18.36;66.21;99718.19;347475;28;1055;-73
2022/08/29 00:57:12;;;;;;;5.55;4.05;;;;;;;18.36;65.91;99714.72;348024;28;1362;-73
2022/08/29 00:57:27;;;;;;;6.63;4.05;;;;;;;18.35;66.15;99716.53;348092;28;1901;-73
2022/08/29 00:57:45;;;;;;;6.43;4.00;;;;;;;18.34;66.00;99722.72;347091;28;1604;-73
2022/08/29 00:58:02;;;;;;;6.00;4.10;;;;;;;18.36;66.20;99718.19;346560;28;1369;-73
2022/08/29 00:58:27;;;;;;;5.68;4.20;;;;;;;18.34;66.49;99720.09;349110;28;1254;-73
2022/08/29 00:58:44;;;;;;;5.30;4.00;;;;;;;18.36;66.47;99723.47;346568;28;1082;-73
2022/08/29 00:59:05;;;;;;;5.70;4.05;;;;;;;18.39;66.36;99721.56;346320;28;1835;-73
2022/08/29 00:59:21;;;;;;;6.05;4.20;;;;;;;18.38;66.12;99720.75;346805;28;1257;-73
2022/08/29 00:59:40;;;;;;;5.15;3.88;;;;;;;18.40;65.79;99728.53;348251;28;1295;-73
2022/08/29 00:59:52;;;;;;;6.03;3.88;;;;;;;18.40;65.64;99718.84;349040;28;1270;-73
2022/08/29 01:00:06;;;;;;;5.95;3.97;;;;;;;18.42;65.68;99718.75;349537;28;752;-73
2022/08/29 01:00:18;;;;;;;5.07;3.90;;;;;;;18.42;65.78;99716.13;349005;28;1225;-73
2022/08/29 01:00:31;;;;;;;4.80;3.75;;;;;;;18.43;65.83;99723.06;347954;28;1159;-73
2022/08/29 01:00:44;;;;;;;5.25;3.80;;;;;;;18.42;66.86;99721.41;348172;28;929;-73
2022/08/29 01:00:57;;;;;;;5.30;3.90;;;;;;;18.41;66.73;99724.94;347623;28;1315;-73
2022/08/29 01:01:09;;;;;;;4.97;3.90;;;;;;;18.40;66.69;99721.50;347897;28;1351;-73
2022/08/29 01:01:22;;;;;;;5.25;3.90;;;;;;;18.41;66.45;99722.31;347695;28;1719;-73
2022/08/29 01:01:35;;;;;;;6.78;4.00;;;;;;;18.41;66.05;99722.31;349112;28;1073;-73
2022/08/29 01:01:47;;;;;;;6.90;3.80;;;;;;;18.42;66.03;99724.03;347523;28;1425;-73
2022/08/29 01:02:02;;;;;;;6.65;3.92;;;;;;;18.42;65.93;99721.41;347811;28;1173;-73
2022/08/29 01:02:14;;;;;;;5.70;4.10;;;;;;;18.42;65.99;99721.41;346499;28;2111;-73
2022/08/29 01:02:27;;;;;;;5.63;4.20;;;;;;;18.40;66.45;99715.38;346380;28;1089;-73
2022/08/29 01:02:40;;;;;;;6.60;4.25;;;;;;;18.39;66.40;99718.94;345829;28;1595;-73
2022/08/29 01:02:53;;;;;;;6.28;4.13;;;;;;;18.39;66.15;99719.81;346469;28;1797;-73
2022/08/29 01:03:06;;;;;;;7.03;3.95;;;;;;;18.40;66.30;99721.50;347714;28;1065;-72
2022/08/29 01:03:18;;;;;;;6.05;3.95;;;;;;;18.41;66.30;99719.69;347104;28;1335;-73
2022/08/29 01:03:32;;;;;;;5.10;3.80;;;;;;;18.40;66.40;99718.00;348389;28;762;-73
2022/08/29 01:03:45;;;;;;;5.00;3.63;;;;;;;18.42;66.33;99721.41;349053;28;1066;-73
2022/08/29 01:03:58;;;;;;;5.53;3.63;;;;;;;18.42;66.19;99716.13;350255;28;1058;-73
2022/08/29 01:04:12;;;;;;;6.07;3.95;;;;;;;18.43;66.51;99717.81;350281;28;1014;-73
2022/08/29 01:04:34;;;;;;;7.88;4.28;;;;;;;18.41;66.96;99717.06;348233;28;1626;-72
2022/08/29 01:04:46;;;;;;;8.07;4.22;;;;;;;18.41;66.81;99724.94;346249;28;1453;-73
2022/08/29 01:04:59;;;;;;;8.07;4.20;;;;;;;18.40;66.41;99724.13;348073;28;1104;-73
2022/08/29 01:05:14;;;;;;;7.38;3.83;;;;;;;18.42;66.21;99716.13;347122;28;1746;-73
2022/08/29 01:05:28;;;;;;;7.82;3.80;;;;;;;18.43;65.69;99715.19;346309;28;1944;-73
2022/08/29 01:05:41;;;;;;;8.05;4.05;;;;;;;18.39;65.83;99716.31;346596;28;1078;-73
2022/08/29 01:05:53;;;;;;;6.18;4.03;;;;;;;18.36;65.81;99717.38;346567;28;1129;-73
2022/08/29 01:06:07;;;;;;;5.78;4.13;;;;;;;18.34;66.03;99720.09;347400;28;1182;-73